Time;durP1;ratioP1;P1;durP2;ratioP2;P2;SDS_P1;SDS_P2;PMS_P1;PMS_P2;Temp;Humidity;BMP_temperature;BMP_pressure;BME280_temperature;BME280_humidity;BME280_pressure;Samples;Min_cycle;Max_cycle;Signal;HPM_P1;HPM_P2
2021/09/30 00:00:42;;;;;;;43.63;39.83;;;;;;;13.24;100.00;102092.56;4960013;29;20047;-77
2021/09/30 00:03:09;;;;;;;45.05;41.25;;;;;;;13.23;100.00;102090.09;4959888;28;20496;-79
2021/09/30 00:05:38;;;;;;;55.53;51.28;;;;;;;13.21;100.00;102092.94;4961048;29;20051;-78
2021/09/30 00:08:05;;;;;;;48.97;45.60;;;;;;;13.23;100.00;102092.78;4959890;28;20089;-79
2021/09/30 00:10:32;;;;;;;52.47;48.85;;;;;;;13.24;100.00;102091.75;4960045;28;20416;-79
2021/09/30 00:13:04;;;;;;;52.22;48.65;;;;;;;13.20;100.00;102091.31;4961345;29;20062;-78
2021/09/30 00:15:45;;;;;;;55.85;51.70;;;;;;;13.13;100.00;102093.09;4961110;29;20043;-77
2021/09/30 00:18:37;;;;;;;54.45;50.83;;;;;;;13.09;100.00;102091.78;4959770;28;20054;-80
2021/09/30 00:34:57;;;;;;;48.47;44.42;;;;;;;12.89;100.00;102102.25;4959616;28;20053;-79
2021/09/30 00:40:18;;;;;;;53.65;49.65;;;;;;;12.73;100.00;102107.78;4957588;29;20094;-79
2021/09/30 00:45:43;;;;;;;58.60;54.13;;;;;;;12.69;100.00;102115.34;4956707;29;20396;-79
2021/09/30 00:48:22;;;;;;;53.03;48.85;;;;;;;12.48;100.00;102116.09;4955403;29;20058;-81
2021/09/30 00:51:01;;;;;;;47.38;43.38;;;;;;;12.44;100.00;102117.47;4956205;29;20051;-80
2021/09/30 00:54:05;;;;;;;46.80;42.75;;;;;;;12.43;100.00;102107.81;4956957;29;20130;-79
2021/09/30 01:58:52;;;;;;;53.67;49.47;;;;;;;12.23;100.00;102104.88;4955380;29;20062;-80
2021/09/30 02:21:37;;;;;;;68.15;63.15;;;;;;;11.94;100.00;102121.66;4921923;29;20117;-78
2021/09/30 02:27:02;;;;;;;57.38;52.78;;;;;;;11.93;100.00;102111.19;4954625;28;20058;-78
2021/09/30 02:29:39;;;;;;;61.40;56.40;;;;;;;11.94;100.00;102116.31;4955037;28;20047;-78
2021/09/30 03:00:15;;;;;;;69.30;63.35;;;;;;;11.09;100.00;102117.25;4955284;28;20110;-77
2021/09/30 03:02:44;;;;;;;76.07;70.55;;;;;;;11.11;100.00;102122.41;4954033;28;20083;-78
2021/09/30 03:05:14;;;;;;;65.07;59.97;;;;;;;10.99;100.00;102117.50;4955236;28;20051;-78
2021/09/30 03:07:43;;;;;;;63.10;57.53;;;;;;;10.88;100.00;102122.38;4938100;28;20051;-78
2021/09/30 03:10:12;;;;;;;62.83;57.63;;;;;;;10.71;100.00;102130.41;4954924;29;20098;-79
2021/09/30 03:12:40;;;;;;;61.28;56.40;;;;;;;10.65;100.00;102120.47;4955993;28;20055;-79
2021/09/30 03:15:14;;;;;;;53.97;49.45;;;;;;;10.60;100.00;102122.00;4954714;28;20058;-79
2021/09/30 03:17:45;;;;;;;51.30;46.92;;;;;;;10.55;100.00;102128.63;4954574;29;20133;-83
2021/09/30 03:20:33;;;;;;;55.20;49.83;;;;;;;10.63;100.00;102127.78;4954382;28;20502;-80
2021/09/30 03:23:03;;;;;;;56.50;51.90;;;;;;;10.22;100.00;102130.50;4954200;28;20055;-79
2021/09/30 03:25:32;;;;;;;54.53;49.45;;;;;;;10.33;100.00;102126.72;4954544;28;20133;-78
2021/09/30 03:27:59;;;;;;;50.58;46.28;;;;;;;10.24;100.00;102130.34;4954159;28;20051;-79
2021/09/30 03:30:28;;;;;;;55.40;50.22;;;;;;;9.97;100.00;102129.72;4955195;28;20051;-79
2021/09/30 03:32:57;;;;;;;53.35;48.60;;;;;;;10.15;100.00;102132.19;4954499;29;20381;-79
2021/09/30 03:35:24;;;;;;;50.25;45.33;;;;;;;10.04;100.00;102127.22;4954307;28;20115;-80
2021/09/30 03:37:51;;;;;;;51.15;46.50;;;;;;;9.82;100.00;102134.03;4954660;28;20173;-79
2021/09/30 03:40:19;;;;;;;52.42;48.03;;;;;;;9.79;100.00;102137.03;4954368;28;20074;-79
2021/09/30 03:42:46;;;;;;;51.22;46.75;;;;;;;9.54;100.00;102138.84;4954469;29;20062;-80
2021/09/30 03:45:13;;;;;;;50.88;46.15;;;;;;;9.63;100.00;102141.34;4955388;28;20052;-79
2021/09/30 03:47:40;;;;;;;52.08;47.33;;;;;;;9.55;100.00;102143.16;4954795;28;20051;-79
2021/09/30 03:50:14;;;;;;;53.70;49.25;;;;;;;9.63;100.00;102140.53;4954372;28;20142;-79
2021/09/30 03:52:54;;;;;;;54.95;49.72;;;;;;;9.54;100.00;102141.50;4937194;28;20455;-78
2021/09/30 03:55:38;;;;;;;56.67;51.58;;;;;;;8.87;100.00;102145.00;4953631;28;20055;-81
2021/09/30 04:00:49;;;;;;;54.08;49.08;;;;;;;9.03;100.00;102149.50;4954569;28;20142;-79
2021/09/30 04:03:15;;;;;;;72.88;65.35;;;;;;;8.62;100.00;102157.31;4954306;28;20059;-79
2021/09/30 04:05:42;;;;;;;73.07;62.90;;;;;;;8.60;100.00;102151.31;4954101;29;20377;-81
2021/09/30 04:08:09;;;;;;;73.32;65.85;;;;;;;8.73;100.00;102150.88;4954455;28;20110;-79
2021/09/30 04:10:37;;;;;;;67.38;60.90;;;;;;;8.77;100.00;102151.38;4954343;28;20403;-79
2021/09/30 04:13:04;;;;;;;70.60;63.08;;;;;;;8.86;100.00;102158.38;4953202;28;20047;-77
2021/09/30 04:15:31;;;;;;;51.08;46.47;;;;;;;8.93;100.00;102160.25;4958112;29;20051;-78
2021/09/30 04:17:58;;;;;;;54.08;48.60;;;;;;;8.68;100.00;102161.09;4957122;29;20491;-80
2021/09/30 04:20:24;;;;;;;52.10;47.47;;;;;;;8.81;100.00;102155.41;4957276;29;20122;-79
2021/09/30 04:22:51;;;;;;;53.28;48.20;;;;;;;8.11;100.00;102166.03;4957693;28;20061;-81
2021/09/30 04:25:18;;;;;;;61.80;56.75;;;;;;;8.44;100.00;102175.03;4957599;28;20059;-79
2021/09/30 04:27:46;;;;;;;60.30;55.42;;;;;;;8.36;100.00;102170.50;4958389;29;20054;-79
2021/09/30 04:30:13;;;;;;;56.50;51.70;;;;;;;7.64;100.00;102183.00;4958497;28;20058;-78
2021/09/30 04:32:40;;;;;;;60.80;55.63;;;;;;;7.92;100.00;102174.97;4957398;28;20051;-78
2021/09/30 04:35:08;;;;;;;60.53;54.08;;;;;;;8.07;100.00;102178.75;4956722;29;20059;-80
2021/09/30 04:37:34;;;;;;;60.17;54.55;;;;;;;8.11;100.00;102173.97;4957574;28;20055;-79
2021/09/30 04:40:01;;;;;;;60.17;54.92;;;;;;;8.45;100.00;102177.56;4957373;29;20062;-79
2021/09/30 04:42:28;;;;;;;62.35;57.35;;;;;;;8.53;100.00;102179.41;4957204;28;20055;-78
2021/09/30 04:44:56;;;;;;;58.10;52.17;;;;;;;8.34;100.00;102191.00;4956817;28;20058;-79
2021/09/30 04:47:23;;;;;;;58.92;53.38;;;;;;;8.33;100.00;102183.25;4957566;28;20053;-82
2021/09/30 04:49:50;;;;;;;64.78;58.35;;;;;;;8.47;100.00;102186.19;4957819;28;20062;-79
2021/09/30 04:52:17;;;;;;;60.25;55.03;;;;;;;8.64;100.00;102184.44;4958142;29;20411;-79
2021/09/30 04:54:43;;;;;;;55.53;50.40;;;;;;;8.86;100.00;102185.69;4956981;28;20051;-78
2021/09/30 04:57:10;;;;;;;50.28;46.00;;;;;;;8.92;100.00;102181.59;4957020;28;20110;-78
2021/09/30 04:59:37;;;;;;;51.63;47.25;;;;;;;8.82;100.00;102184.38;4957695;28;20059;-78
2021/09/30 05:02:05;;;;;;;52.28;47.33;;;;;;;8.57;100.00;102185.25;4956397;28;20125;-80
2021/09/30 05:04:32;;;;;;;55.63;50.70;;;;;;;9.00;100.00;102194.06;4956486;28;20058;-79
2021/09/30 05:06:59;;;;;;;54.83;49.58;;;;;;;9.06;100.00;102193.41;4957504;29;20475;-79
2021/09/30 05:09:27;;;;;;;65.15;58.97;;;;;;;9.35;100.00;102193.84;4956466;28;20051;-78
2021/09/30 05:11:56;;;;;;;61.80;55.83;;;;;;;9.51;100.00;102190.41;4957121;28;20043;-79
2021/09/30 05:14:24;;;;;;;61.05;55.80;;;;;;;9.61;100.00;102190.25;4956757;28;20061;-80
2021/09/30 05:16:52;;;;;;;68.40;62.42;;;;;;;9.71;100.00;102196.22;4957322;29;20066;-79
2021/09/30 05:19:20;;;;;;;62.33;56.88;;;;;;;9.65;100.00;102196.88;4957038;28;20054;-80
2021/09/30 05:21:48;;;;;;;57.38;52.03;;;;;;;10.00;100.00;102195.75;4956448;28;20480;-78
2021/09/30 05:24:15;;;;;;;51.67;46.72;;;;;;;9.91;100.00;102193.25;4956044;28;20471;-78
2021/09/30 05:26:42;;;;;;;52.47;47.90;;;;;;;10.06;100.00;102192.44;4957172;28;20114;-79
2021/09/30 05:29:09;;;;;;;52.92;48.17;;;;;;;10.36;100.00;102199.91;4956817;28;20523;-79
2021/09/30 05:31:37;;;;;;;54.60;50.05;;;;;;;10.58;100.00;102198.38;4956067;28;20138;-81
2021/09/30 05:34:04;;;;;;;53.30;48.42;;;;;;;10.85;100.00;102197.13;4956193;28;20049;-79
2021/09/30 05:36:32;;;;;;;53.25;48.50;;;;;;;10.98;100.00;102190.28;4957297;29;20055;-78
2021/09/30 05:38:59;;;;;;;55.38;50.38;;;;;;;11.27;100.00;102193.28;4956652;28;20156;-78
2021/09/30 05:41:26;;;;;;;53.90;48.67;;;;;;;11.47;100.00;102189.19;4956171;28;20096;-79
2021/09/30 05:43:55;;;;;;;53.85;49.35;;;;;;;11.62;100.00;102189.28;4956020;28;20057;-79
2021/09/30 05:46:33;;;;;;;50.35;46.28;;;;;;;11.98;100.00;102200.19;4955963;28;20054;-79
2021/09/30 05:49:00;;;;;;;48.03;44.05;;;;;;;12.26;100.00;102189.75;4948592;28;20118;-82
2021/09/30 05:51:27;;;;;;;51.75;46.90;;;;;;;12.39;100.00;102199.78;4956705;29;20444;-78
2021/09/30 05:53:56;;;;;;;49.92;45.08;;;;;;;12.64;100.00;102204.88;4955989;28;20051;-80
2021/09/30 05:56:22;;;;;;;47.45;42.92;;;;;;;13.32;100.00;102209.06;4955791;28;20052;-78
2021/09/30 05:58:49;;;;;;;43.10;38.95;;;;;;;12.94;100.00;102203.84;4956226;28;20126;-77
2021/09/30 06:01:33;;;;;;;47.45;42.95;;;;;;;13.09;100.00;102201.16;4946956;29;20062;-79
2021/09/30 06:12:38;;;;;;;40.72;36.78;;;;;;;13.43;100.00;102195.22;4957178;28;20149;-79
2021/09/30 06:15:12;;;;;;;42.45;38.80;;;;;;;13.60;100.00;102203.00;4955355;28;20055;-80
2021/09/30 06:17:41;;;;;;;45.70;40.97;;;;;;;12.97;100.00;102207.97;4955945;28;20117;-78
2021/09/30 06:20:08;;;;;;;44.95;41.13;;;;;;;12.70;100.00;102209.47;4955434;28;20082;-79
2021/09/30 06:22:35;;;;;;;43.70;39.50;;;;;;;12.63;100.00;102212.03;4955377;29;20059;-79
2021/09/30 06:25:04;;;;;;;40.80;37.20;;;;;;;12.92;100.00;102210.38;4956196;29;20055;-80
2021/09/30 06:27:31;;;;;;;42.85;39.00;;;;;;;13.03;100.00;102213.41;4955407;28;20066;-78
2021/09/30 06:29:58;;;;;;;45.03;40.65;;;;;;;12.71;100.00;102206.63;4955167;28;20511;-80
2021/09/30 06:32:24;;;;;;;46.08;41.85;;;;;;;12.64;100.00;102210.19;4955472;28;20092;-80
2021/09/30 06:34:51;;;;;;;44.55;39.88;;;;;;;12.64;100.00;102210.19;4955545;28;20051;-79
2021/09/30 06:37:18;;;;;;;42.70;38.78;;;;;;;12.80;100.00;102204.69;4955278;28;20213;-80
2021/09/30 06:39:45;;;;;;;45.65;41.70;;;;;;;13.13;100.00;102204.28;4955649;28;20052;-78
2021/09/30 06:42:13;;;;;;;42.67;38.70;;;;;;;13.28;100.00;102207.78;4954815;28;20479;-78
2021/09/30 06:44:40;;;;;;;44.40;40.10;;;;;;;13.50;100.00;102214.81;4955412;28;20055;-78
2021/09/30 06:47:07;;;;;;;44.67;39.90;;;;;;;13.60;100.00;102217.19;4954723;28;20043;-78
2021/09/30 06:49:33;;;;;;;44.63;40.38;;;;;;;13.73;100.00;102213.81;4954969;28;20058;-79
2021/09/30 06:52:00;;;;;;;42.22;38.28;;;;;;;13.98;100.00;102204.41;4955678;29;20070;-78
2021/09/30 06:54:27;;;;;;;42.38;38.38;;;;;;;15.34;100.00;102204.81;4954970;28;20499;-78
2021/09/30 06:56:54;;;;;;;42.60;38.65;;;;;;;14.39;100.00;102210.88;4954708;28;20547;-80
2021/09/30 06:59:23;;;;;;;42.47;38.42;;;;;;;14.40;100.00;102208.03;4955670;28;20051;-80
2021/09/30 07:01:51;;;;;;;42.25;38.13;;;;;;;14.66;100.00;102211.91;4954203;28;20059;-79
2021/09/30 07:04:18;;;;;;;43.63;39.65;;;;;;;15.05;100.00;102207.78;4954912;28;20058;-79
2021/09/30 07:06:47;;;;;;;39.65;35.90;;;;;;;15.97;100.00;102206.38;4955306;29;20047;-79
2021/09/30 07:09:13;;;;;;;37.53;34.30;;;;;;;16.53;100.00;102208.63;4955519;28;20063;-79
2021/09/30 07:11:40;;;;;;;37.13;33.65;;;;;;;16.63;100.00;102209.00;4954748;28;20067;-82
2021/09/30 07:14:07;;;;;;;40.30;36.33;;;;;;;16.55;100.00;102208.41;4954402;28;20051;-81
2021/09/30 07:16:35;;;;;;;40.97;37.03;;;;;;;16.23;100.00;102205.56;4955454;29;20044;-80
2021/09/30 07:19:02;;;;;;;38.33;34.90;;;;;;;16.55;100.00;102203.03;4953950;28;20483;-77
2021/09/30 07:21:31;;;;;;;39.55;36.17;;;;;;;16.91;100.00;102207.91;4950585;28;20058;-79
2021/09/30 07:23:57;;;;;;;38.13;34.75;;;;;;;17.28;100.00;102190.22;4955165;28;20079;-79
2021/09/30 07:26:24;;;;;;;38.47;35.05;;;;;;;17.53;100.00;102200.19;4955123;28;20047;-79
2021/09/30 07:28:51;;;;;;;39.15;35.78;;;;;;;17.71;100.00;102197.59;4954574;28;20048;-79
2021/09/30 07:31:18;;;;;;;35.78;32.35;;;;;;;18.22;100.00;102203.84;4955241;28;20065;-77
2021/09/30 07:33:46;;;;;;;37.17;31.70;;;;;;;18.02;100.00;102195.94;4955104;28;20058;-78
2021/09/30 07:36:14;;;;;;;34.25;31.15;;;;;;;18.42;100.00;102198.25;4955339;29;20052;-77
2021/09/30 07:38:41;;;;;;;35.03;31.80;;;;;;;17.83;100.00;102197.75;4954564;28;20531;-77
2021/09/30 07:41:08;;;;;;;38.22;35.10;;;;;;;17.68;100.00;102189.97;4954132;28;20419;-79
2021/09/30 07:43:34;;;;;;;37.08;33.50;;;;;;;18.00;100.00;102193.50;4954453;28;20113;-78
2021/09/30 07:46:01;;;;;;;35.95;32.92;;;;;;;18.47;100.00;102193.88;4954145;28;20051;-81
2021/09/30 07:48:28;;;;;;;37.28;33.72;;;;;;;17.96;100.00;102194.13;4957563;28;20067;-78
2021/09/30 07:50:56;;;;;;;37.63;34.35;;;;;;;18.85;100.00;102186.63;4958820;29;20047;-79
2021/09/30 07:53:23;;;;;;;36.67;33.42;;;;;;;18.53;100.00;102192.97;4957863;29;20055;-80
2021/09/30 07:55:49;;;;;;;36.35;33.03;;;;;;;18.63;100.00;102189.75;4957741;29;20059;-78
2021/09/30 07:58:16;;;;;;;35.00;31.95;;;;;;;19.11;100.00;102182.81;4958299;28;20110;-78
2021/09/30 08:00:43;;;;;;;36.63;32.72;;;;;;;19.15;100.00;102186.69;4957349;28;20051;-79
2021/09/30 08:03:10;;;;;;;33.97;30.90;;;;;;;19.25;100.00;102183.47;4958306;29;20047;-79
2021/09/30 08:05:38;;;;;;;35.35;31.83;;;;;;;20.21;100.00;102181.53;4958500;29;20114;-79
2021/09/30 08:08:07;;;;;;;36.65;32.97;;;;;;;20.09;100.00;102182.38;4957962;28;20054;-77
2021/09/30 08:10:36;;;;;;;36.05;32.88;;;;;;;20.75;100.00;102180.34;4957829;28;20607;-80
2021/09/30 08:13:03;;;;;;;36.35;32.55;;;;;;;20.36;99.76;102171.94;4957550;28;20126;-79
2021/09/30 08:15:31;;;;;;;33.25;30.67;;;;;;;19.81;100.00;102180.34;4958791;29;20071;-80
2021/09/30 08:17:59;;;;;;;35.58;32.03;;;;;;;20.02;100.00;102176.28;4958033;28;20138;-78
2021/09/30 08:20:25;;;;;;;34.45;31.27;;;;;;;19.98;100.00;102174.28;4948840;29;20110;-77
2021/09/30 08:22:53;;;;;;;33.55;30.80;;;;;;;19.81;100.00;102168.75;4958497;28;20051;-81
2021/09/30 08:25:21;;;;;;;35.58;33.00;;;;;;;20.28;99.93;102177.69;4957451;28;20519;-77
2021/09/30 08:27:48;;;;;;;33.28;30.45;;;;;;;20.87;91.77;102182.19;4957826;29;20058;-79
2021/09/30 08:30:15;;;;;;;33.28;30.20;;;;;;;20.24;93.22;102170.28;4958634;28;20077;-80
2021/09/30 08:32:43;;;;;;;31.92;29.40;;;;;;;20.07;92.37;102180.97;4957993;28;20055;-79
2021/09/30 08:35:11;;;;;;;33.70;30.88;;;;;;;20.12;93.66;102181.06;4958391;28;20058;-78
2021/09/30 08:37:38;;;;;;;34.17;31.67;;;;;;;21.33;85.59;102169.56;4957427;28;20110;-79
2021/09/30 08:40:06;;;;;;;33.75;30.75;;;;;;;20.55;76.23;102171.84;4958359;29;20476;-79
2021/09/30 08:42:35;;;;;;;34.78;31.80;;;;;;;20.58;83.79;102174.88;4958443;28;20058;-80
2021/09/30 08:45:02;;;;;;;35.97;32.83;;;;;;;20.63;92.65;102184.94;4956638;28;20047;-78
2021/09/30 08:47:30;;;;;;;35.85;32.40;;;;;;;21.79;76.93;102167.69;4957180;28;20059;-78
2021/09/30 08:49:57;;;;;;;33.50;30.50;;;;;;;21.04;72.52;102178.50;4957044;28;20059;-80
2021/09/30 08:52:24;;;;;;;33.80;31.00;;;;;;;21.46;69.05;102172.81;4957783;29;20440;-78
2021/09/30 08:54:50;;;;;;;35.75;32.78;;;;;;;22.18;61.93;102169.41;4957263;28;20546;-80
2021/09/30 08:57:17;;;;;;;35.75;32.80;;;;;;;21.34;60.26;102176.63;4956750;28;20468;-77
2021/09/30 09:00:00;;;;;;;34.47;31.42;;;;;;;22.80;57.70;102175.63;4955993;28;20483;-79
2021/09/30 09:02:26;;;;;;;;;;;;;;;21.69;66.78;102162.91;4954141;28;20396;-80
2021/09/30 09:04:56;;;;;;;35.42;32.05;;;;;;;21.27;57.96;102169.47;4956931;28;19982;-81
2021/09/30 09:07:25;;;;;;;33.53;30.73;;;;;;;22.04;59.41;102161.84;4957822;29;20051;-79
2021/09/30 09:09:52;;;;;;;33.90;31.00;;;;;;;20.35;60.02;102169.47;4956496;28;20138;-79
2021/09/30 09:12:20;;;;;;;34.63;31.98;;;;;;;21.44;65.22;102157.91;4957032;28;20055;-79
2021/09/30 09:14:48;;;;;;;35.20;32.00;;;;;;;22.14;60.86;102161.97;4956691;28;20452;-80
2021/09/30 09:17:17;;;;;;;34.65;31.58;;;;;;;22.21;64.25;102165.38;4956524;28;20066;-79
2021/09/30 09:19:46;;;;;;;35.63;32.47;;;;;;;20.96;62.37;102157.25;4956208;28;20063;-80
2021/09/30 09:22:15;;;;;;;35.60;32.50;;;;;;;20.52;58.46;102167.72;4957005;29;20501;-79
2021/09/30 09:24:59;;;;;;;33.15;30.55;;;;;;;21.41;58.89;102158.38;4956622;28;20063;-79
2021/09/30 09:27:43;;;;;;;33.58;30.15;;;;;;;21.91;55.58;102152.19;4956246;28;20476;-81
2021/09/30 09:30:30;;;;;;;35.70;32.42;;;;;;;22.44;56.03;102145.38;4957298;28;20141;-79
2021/09/30 09:33:06;;;;;;;36.35;32.72;;;;;;;21.13;57.76;102153.81;4957576;28;20456;-80
2021/09/30 09:36:06;;;;;;;35.38;32.53;;;;;;;21.78;59.05;102144.41;4956858;28;20059;-80
2021/09/30 09:38:47;;;;;;;34.58;31.63;;;;;;;22.27;62.29;102145.44;4951371;28;20051;-81
2021/09/30 09:41:23;;;;;;;37.83;34.75;;;;;;;21.88;58.86;102145.38;4956044;28;20051;-79
2021/09/30 09:43:51;;;;;;;37.20;34.20;;;;;;;21.64;60.88;102150.16;4955635;29;20531;-80
2021/09/30 09:46:21;;;;;;;37.75;34.47;;;;;;;21.05;64.43;102155.81;4948495;28;20139;-79
2021/09/30 09:48:56;;;;;;;38.85;35.60;;;;;;;22.37;59.25;102145.56;4956433;28;20043;-81
2021/09/30 09:51:23;;;;;;;39.08;35.80;;;;;;;22.77;54.19;102149.84;4956648;29;20455;-78
2021/09/30 09:53:55;;;;;;;42.13;38.70;;;;;;;21.39;55.13;102150.53;4956539;28;20066;-79
2021/09/30 09:56:23;;;;;;;41.80;38.13;;;;;;;20.72;58.96;102155.69;4955939;28;20114;-79
2021/09/30 09:58:53;;;;;;;36.03;33.25;;;;;;;21.33;55.50;102137.97;4955230;29;20452;-78
2021/09/30 10:01:27;;;;;;;36.20;33.10;;;;;;;21.53;54.75;102131.28;4947594;28;20287;-79
2021/09/30 10:03:59;;;;;;;37.00;34.33;;;;;;;21.92;54.74;102135.69;4955836;28;20051;-78
2021/09/30 10:06:28;;;;;;;38.65;31.90;;;;;;;22.44;56.13;102139.16;4956328;29;20484;-79
2021/09/30 10:08:56;;;;;;;35.65;32.90;;;;;;;23.06;48.89;102128.81;4955961;28;20050;-78
2021/09/30 10:11:23;;;;;;;41.85;38.08;;;;;;;22.82;49.34;102133.66;4955699;28;20052;-79
2021/09/30 10:13:50;;;;;;;40.90;37.35;;;;;;;22.17;49.91;102131.75;4956630;28;20065;-79
2021/09/30 10:16:23;;;;;;;37.53;34.83;;;;;;;21.52;50.60;102130.47;4955334;29;20121;-80
2021/09/30 10:18:53;;;;;;;41.70;38.60;;;;;;;20.88;51.99;102136.06;4955179;28;20093;-79
2021/09/30 10:21:20;;;;;;;39.17;36.10;;;;;;;21.16;52.99;102137.94;4956444;28;20137;-78
2021/09/30 10:23:54;;;;;;;39.58;36.58;;;;;;;21.28;51.39;102122.47;4954980;28;20105;-77
2021/09/30 10:26:29;;;;;;;36.53;33.58;;;;;;;19.97;49.70;102134.88;4955308;28;20121;-81
2021/09/30 10:28:59;;;;;;;38.35;35.50;;;;;;;20.83;50.25;102122.44;4954708;29;20559;-80
2021/09/30 10:31:32;;;;;;;35.63;32.78;;;;;;;20.51;49.44;102125.56;4955221;28;20180;-81
2021/09/30 10:34:02;;;;;;;35.30;32.47;;;;;;;20.16;52.61;102125.63;4947773;28;20062;-79
2021/09/30 10:36:35;;;;;;;33.83;31.08;;;;;;;19.38;54.13;102122.13;4955891;29;20059;-79
2021/09/30 10:39:29;;;;;;;32.80;30.23;;;;;;;19.71;55.42;102120.00;4954859;28;20051;-80
2021/09/30 10:41:59;;;;;;;35.90;32.97;;;;;;;19.96;53.41;102125.16;4954703;28;20094;-81
2021/09/30 10:44:36;;;;;;;36.25;33.38;;;;;;;19.98;56.66;102123.88;4955044;28;20396;-79
2021/09/30 10:47:05;;;;;;;36.58;33.90;;;;;;;19.94;51.50;102122.72;4955464;28;20090;-78
2021/09/30 10:49:47;;;;;;;35.63;32.92;;;;;;;19.73;53.12;102123.25;4955621;28;20403;-78
2021/09/30 10:52:23;;;;;;;36.33;33.83;;;;;;;20.02;52.04;102116.94;4956027;29;20166;-78
2021/09/30 10:55:01;;;;;;;35.63;33.03;;;;;;;20.13;53.11;102123.41;4954565;28;20484;-79
2021/09/30 10:57:37;;;;;;;33.97;31.15;;;;;;;20.11;53.92;102117.41;4954947;28;20047;-79
2021/09/30 11:00:05;;;;;;;34.42;31.55;;;;;;;20.14;53.83;102117.75;4955701;28;20051;-80
2021/09/30 11:02:52;;;;;;;35.22;32.72;;;;;;;19.99;52.60;102112.03;4955211;28;20062;-80
2021/09/30 11:05:20;;;;;;;38.22;35.10;;;;;;;19.96;54.28;102103.59;4952539;28;20051;-79
2021/09/30 11:08:20;;;;;;;36.05;33.03;;;;;;;20.64;54.30;102100.22;4955190;28;20059;-79
2021/09/30 11:11:15;;;;;;;34.30;31.55;;;;;;;21.27;49.01;102088.44;4954047;29;20142;-77
2021/09/30 11:13:44;;;;;;;35.03;31.83;;;;;;;20.34;48.65;102093.09;4955227;28;20130;-79
2021/09/30 11:16:13;;;;;;;32.92;30.23;;;;;;;20.98;49.05;102092.22;4954528;28;20055;-78
2021/09/30 11:18:53;;;;;;;37.63;34.60;;;;;;;20.46;49.04;102100.38;4955340;28;20125;-78
2021/09/30 11:21:43;;;;;;;30.85;28.05;;;;;;;20.72;51.35;102086.31;4954622;28;20063;-81
2021/09/30 11:24:12;;;;;;;30.50;27.70;;;;;;;20.34;50.31;102093.09;4949437;28;20435;-78
2021/09/30 11:27:12;;;;;;;29.42;26.77;;;;;;;20.65;50.29;102082.16;4954478;28;20055;-78
2021/09/30 11:29:39;;;;;;;29.75;27.05;;;;;;;21.58;49.82;102080.84;4954490;28;20133;-79
2021/09/30 11:32:26;;;;;;;30.50;27.98;;;;;;;21.09;50.08;102075.16;4954724;28;20052;-78
2021/09/30 11:34:55;;;;;;;34.45;31.70;;;;;;;21.37;49.45;102078.88;4954338;28;20055;-80
2021/09/30 11:37:26;;;;;;;34.03;31.48;;;;;;;21.64;48.51;102079.03;4955103;29;20487;-78
2021/09/30 11:39:56;;;;;;;37.58;34.45;;;;;;;21.92;48.46;102068.09;4954750;28;20058;-79
2021/09/30 11:42:25;;;;;;;35.50;32.85;;;;;;;21.59;47.74;102071.66;4954372;28;20058;-79
2021/09/30 11:45:00;;;;;;;39.65;36.70;;;;;;;22.30;45.75;102060.22;4954520;28;20122;-78
2021/09/30 11:47:29;;;;;;;40.28;37.15;;;;;;;23.71;45.95;102069.19;4951153;28;20138;-82
2021/09/30 11:49:57;;;;;;;36.58;34.25;;;;;;;24.92;42.62;102062.59;4954666;28;20514;-78
2021/09/30 11:52:25;;;;;;;34.50;31.65;;;;;;;24.55;40.36;102060.09;4954998;29;20135;-78
2021/09/30 11:54:53;;;;;;;32.88;30.58;;;;;;;23.46;42.55;102059.75;4954321;28;20056;-79
2021/09/30 11:57:23;;;;;;;30.73;27.98;;;;;;;22.94;44.43;102070.41;4955077;28;20051;-79
2021/09/30 11:59:49;;;;;;;29.60;27.25;;;;;;;22.67;44.08;102062.28;4954437;28;20455;-78
2021/09/30 12:02:16;;;;;;;32.90;29.63;;;;;;;22.83;42.60;102064.06;4954343;28;20055;-79
2021/09/30 12:04:46;;;;;;;29.45;26.70;;;;;;;22.86;43.36;102060.84;4954167;28;20129;-79
2021/09/30 12:07:21;;;;;;;31.65;28.38;;;;;;;22.36;47.12;102065.44;4955071;29;20047;-79
2021/09/30 12:09:51;;;;;;;29.95;27.30;;;;;;;21.62;51.47;102068.47;4954625;28;20058;-78
2021/09/30 12:12:18;;;;;;;29.67;26.75;;;;;;;21.24;44.20;102067.28;4954450;28;20051;-78
2021/09/30 12:14:48;;;;;;;31.33;28.70;;;;;;;20.85;51.05;102069.03;4953783;28;20051;-79
2021/09/30 12:17:17;;;;;;;29.45;27.10;;;;;;;20.79;46.54;102060.03;4954460;28;20488;-78
2021/09/30 12:19:47;;;;;;;31.90;29.08;;;;;;;20.83;46.70;102056.84;4953559;29;20396;-78
2021/09/30 12:22:16;;;;;;;31.55;28.73;;;;;;;20.81;45.89;102051.66;4954244;29;20054;-79
2021/09/30 12:24:45;;;;;;;29.67;27.05;;;;;;;20.67;46.13;102047.66;4953975;28;20122;-79
2021/09/30 12:27:14;;;;;;;33.65;30.58;;;;;;;20.43;46.20;102054.97;4953435;28;20047;-77
2021/09/30 12:29:44;;;;;;;33.65;30.65;;;;;;;20.30;46.75;102056.88;4954453;28;20468;-77
2021/09/30 12:32:13;;;;;;;29.77;27.08;;;;;;;20.86;47.42;102050.94;4953386;29;20122;-79
2021/09/30 12:34:40;;;;;;;31.67;29.15;;;;;;;22.23;44.54;102049.56;4954793;28;20492;-79
2021/09/30 12:37:08;;;;;;;31.30;28.55;;;;;;;22.44;43.00;102047.13;4958308;29;20082;-78
2021/09/30 12:39:35;;;;;;;32.40;29.10;;;;;;;22.43;44.33;102051.72;4957088;28;20472;-78
2021/09/30 12:42:14;;;;;;;33.95;31.35;;;;;;;21.90;44.65;102056.69;4952927;28;20137;-78
2021/09/30 12:44:43;;;;;;;30.15;27.27;;;;;;;22.38;43.70;102044.34;4953873;28;20054;-81
2021/09/30 12:47:27;;;;;;;30.30;27.60;;;;;;;22.21;42.02;102045.47;4957148;28;20138;-78
2021/09/30 12:50:06;;;;;;;29.90;27.15;;;;;;;22.27;42.17;102045.31;4957063;28;20059;-78
2021/09/30 12:52:33;;;;;;;28.38;25.80;;;;;;;21.62;41.74;102043.31;4957673;28;20055;-78
2021/09/30 12:55:04;;;;;;;28.83;26.25;;;;;;;21.81;41.03;102043.84;4957858;29;20055;-79
2021/09/30 12:57:36;;;;;;;26.92;24.80;;;;;;;22.47;43.50;102039.31;4956878;28;20473;-80
2021/09/30 13:00:08;;;;;;;28.33;25.77;;;;;;;23.04;40.32;102038.81;4957065;28;20139;-80
2021/09/30 13:02:35;;;;;;;;;;;;;;;22.80;39.34;102037.47;4957202;28;20488;-80
2021/09/30 13:05:02;;;;;;;29.48;26.67;;;;;;;22.73;39.25;102035.00;4956781;28;20396;-79
2021/09/30 13:07:47;;;;;;;31.38;28.85;;;;;;;21.98;40.26;102033.00;4956571;29;20086;-79
2021/09/30 13:10:15;;;;;;;29.45;26.90;;;;;;;21.25;41.61;102035.69;4956586;28;20062;-80
2021/09/30 13:12:59;;;;;;;30.33;27.45;;;;;;;20.81;42.20;102038.16;4957349;29;20059;-78
2021/09/30 13:15:38;;;;;;;31.30;28.65;;;;;;;20.53;42.99;102030.91;4957143;29;20051;-78
2021/09/30 13:18:07;;;;;;;33.83;31.13;;;;;;;20.41;44.38;102033.59;4957153;28;20058;-77
2021/09/30 13:20:35;;;;;;;31.48;28.73;;;;;;;20.02;45.33;102037.94;4956786;28;20051;-80
2021/09/30 13:23:02;;;;;;;33.50;30.75;;;;;;;20.45;46.82;102025.84;4956445;28;20504;-80
2021/09/30 13:25:28;;;;;;;31.27;28.38;;;;;;;21.15;45.71;102022.84;4956071;29;20058;-81
2021/09/30 13:27:56;;;;;;;30.83;28.55;;;;;;;21.57;43.13;102027.81;4956319;28;20404;-78
2021/09/30 13:30:27;;;;;;;33.30;30.33;;;;;;;21.15;43.83;102028.25;4957011;29;20081;-78
2021/09/30 13:32:58;;;;;;;30.52;27.70;;;;;;;21.33;45.24;102024.47;4957256;28;20059;-80
2021/09/30 13:35:26;;;;;;;28.77;25.95;;;;;;;21.35;43.64;102018.81;4956622;28;20403;-78
2021/09/30 13:37:54;;;;;;;27.65;25.33;;;;;;;21.46;44.14;102013.34;4956376;29;20050;-79
2021/09/30 13:40:22;;;;;;;29.27;26.75;;;;;;;22.03;42.50;102014.97;4956038;28;20086;-79
2021/09/30 13:42:49;;;;;;;30.13;27.40;;;;;;;21.97;41.58;102010.56;4956272;29;20051;-79
2021/09/30 13:45:18;;;;;;;30.90;27.85;;;;;;;21.82;45.73;102015.75;4956404;28;20122;-78